Terminal Aerodrome Forecast
Issued by NWS Wichita, KS

Home | Current Version | Previous Version | Text Only | Print | Product List | Glossary On
Versions: 1 2 3 4 5 6 7 8 9 10 11 12 13 14
000
FTUS43 KICT 181700
TAFICT
TAF
KICT 181739Z 1818/1918 21010KT P6SM BKN200
      TEMPO 1906/1910 29015KT -SHRA SCT040=

USA.gov is the U.S. government's official web portal to all federal, state and local government web resources and services.